Happy Valentine's Day! 

Flight Track Log - Related Links

Times and Time Zones

All times are in EDT time to prevent confusion due to time zone crossing. See the SWA1728 flight status page for this flight to view local times or setup timezone preferences in your user account.


Time Position Orientation Groundspeed Altitude Reporting Facility
EDT Latitude Longitude Course Direction KTS MPH feet Rate Location/Type
Mon 06:37:54 PM 39.9333 -104.6333 57° Northeast 223 257 8,100  Level Denver TRACON
Mon 06:38:54 PM 39.9500 -104.5500 75° East 275 316 9,900 1,737 Climbing Denver TRACON
Mon 06:39:48 PM 39.9500 -104.4500 90° East 323 372 11,400 1,745 Climbing Denver TRACON
Mon 06:41:15 PM 39.9647 -104.2597 84° East 371 427 14,000 1,986 Climbing Denver Center
Mon 06:42:16 PM 39.9758 -104.1081 84° East 391 450 16,300 2,049 Climbing Denver Center
Mon 06:43:00 PM 40.0090 -103.7986 57° Northeast  Level FlightAware Approximate
Mon 06:43:18 PM 39.9931 -103.9614 81° East 409 471 18,200  Level Denver Center
Mon 06:44:19 PM 40.0144 -103.8075 80° East 422 486 20,200 2,049 Climbing Denver Center
Mon 06:45:21 PM 40.0389 -103.6583 78° East 411 473 22,400 1,854 Climbing Denver Center
Mon 06:46:22 PM 40.0672 -103.4989 77° East 445 512 24,000 1,415 Climbing Denver Center
Mon 06:47:24 PM 40.0917 -103.3347 79° East 455 524 25,300 1,067 Climbing Denver Center
Mon 06:48:37 PM 40.1200 -103.1608 78° East 481 554 26,400 1,200 Climbing Denver Center
Mon 06:49:39 PM 40.1575 -102.9178 79° East 509 586 28,000 1,306 Climbing Denver Center
Mon 06:50:41 PM 40.1881 -102.7289 78° East 525 604 29,100 1,113 Climbing Denver Center
Mon 06:51:43 PM 40.2158 -102.5436 79° East 532 612 30,300 1,220 Climbing Denver Center
Mon 06:52:44 PM 40.2456 -102.3597 78° East 540 621 31,600 1,366 Climbing Denver Center
Mon 06:53:46 PM 40.2764 -102.1481 79° East 529 609 33,100 1,415 Climbing Denver Center
Mon 06:54:47 PM 40.3036 -101.9672 79° East 528 608 34,500 927 Climbing Denver Center
Mon 06:55:49 PM 40.3347 -101.7594 79° East 523 602 35,000 242 Climbing Denver Center
Mon 06:56:51 PM 40.3625 -101.5739 79° East 539 620 35,000  Level Denver Center
Mon 06:57:52 PM 40.3881 -101.3897 80° East 539 620 35,000  Level Denver Center
Mon 06:58:54 PM 40.4186 -101.1781 79° East 532 612 35,000  Level Denver Center
Mon 06:59:55 PM 40.4450 -100.9956 79° East 535 616 35,000  Level Denver Center
Mon 07:00:57 PM 40.5000 -100.7994 70° East 522 601 35,000  Level Denver Center
Mon 07:02:10 PM 40.5594 -100.6406 64° Northeast 513 590 35,000  Level Denver Center
Mon 07:03:12 PM 40.6283 -100.4558 64° Northeast 510 587 35,000  Level Denver Center
Mon 07:04:14 PM 40.7067 -100.2431 64° Northeast 511 588 35,000  Level Denver Center
Mon 07:05:15 PM 40.7642 -100.0819 65° Northeast 511 588 35,000  Level Denver Center
Mon 07:06:17 PM 40.8233 -99.9219 64° Northeast 510 587 35,000  Level Denver Center
Mon 07:07:18 PM 40.8889 -99.7394 65° Northeast 509 586 35,000  Level Denver Center
Mon 07:08:20 PM 40.9128 -99.5492 81° East 523 602 35,000  Level Denver Center
Mon 07:09:21 PM 40.9247 -99.3594 85° East 523 602 35,000  Level Denver Center
Mon 07:10:23 PM 40.9372 -99.1681 85° East 523 602 35,000  Level Denver Center
Mon 07:11:05 PM 40.9461 -99.0175 85° East 523 602 35,000  Level Minneapolis Center
Mon 07:12:07 PM 40.9583 -98.8258 85° East 524 603 35,000  Level Minneapolis Center
Mon 07:13:09 PM 40.9703 -98.6353 85° East 522 601 35,000  Level Minneapolis Center
Mon 07:14:10 PM 40.9822 -98.4164 86° East 520 598 35,000  Level Minneapolis Center
Mon 07:15:12 PM 40.9928 -98.2275 86° East 518 596 35,000  Level Minneapolis Center
Mon 07:16:14 PM 41.0033 -98.0392 86° East 516 594 35,000  Level Minneapolis Center
Mon 07:17:15 PM 41.0133 -97.8500 86° East 515 593 35,000  Level Minneapolis Center
Mon 07:18:17 PM 41.0233 -97.6625 86° East 513 590 35,000  Level Minneapolis Center
Mon 07:19:19 PM 41.0319 -97.4750 86° East 511 588 35,000  Level Minneapolis Center
Mon 07:20:20 PM 41.0428 -97.2803 86° East 509 586 35,000  Level Minneapolis Center
Mon 07:21:22 PM 41.0517 -97.0950 86° East 506 582 35,000  Level Minneapolis Center
Mon 07:22:24 PM 41.0592 -96.9100 87° East 505 581 35,000  Level Minneapolis Center
Mon 07:23:26 PM 41.0692 -96.6886 86° East 503 579 35,000  Level Minneapolis Center
Mon 07:24:27 PM 41.0781 -96.5050 86° East 503 579 35,000  Level Minneapolis Center
Mon 07:25:29 PM 41.0864 -96.3233 86° East 500 575 35,000  Level Minneapolis Center
Mon 07:26:31 PM 41.0933 -96.1431 87° East 498 573 35,000  Level Minneapolis Center
Mon 07:27:33 PM 41.0992 -95.9639 87° East 496 571 35,000  Level Minneapolis Center
Mon 07:28:34 PM 41.1064 -95.7475 87° East 496 571 35,000  Level Minneapolis Center
Mon 07:29:36 PM 41.1128 -95.5669 87° East 494 568 35,000  Level Minneapolis Center
Mon 07:30:38 PM 41.1194 -95.3872 87° East 493 567 35,000  Level Minneapolis Center
Mon 07:31:40 PM 41.1244 -95.2081 88° East 489 563 35,000  Level Minneapolis Center
Mon 07:32:42 PM 41.1303 -95.0308 87° East 485 558 35,000  Level Minneapolis Center
Mon 07:33:43 PM 41.1350 -94.8533 88° East 484 557 35,000  Level Minneapolis Center
Mon 07:34:45 PM 41.1389 -94.6419 89° East 480 552 35,000  Level Minneapolis Center
Mon 07:35:47 PM 41.1436 -94.4669 88° East 476 548 35,000  Level Minneapolis Center
Mon 07:36:49 PM 41.1492 -94.2933 88° East 474 545 35,000  Level Minneapolis Center
Mon 07:37:51 PM 41.1517 -94.1194 89° East 471 542 35,000  Level Minneapolis Center
Mon 07:38:53 PM 41.1544 -93.9458 89° East 472 543 35,000  Level Minneapolis Center
Mon 07:39:54 PM 41.1581 -93.7736 88° East 471 542 35,000  Level Minneapolis Center
Mon 07:40:56 PM 41.1617 -93.6017 88° East 470 541 35,000  Level Minneapolis Center
Mon 07:41:58 PM 41.1658 -93.3958 88° East 469 540 35,000  Level Minneapolis Center
Mon 07:43:00 PM 41.1681 -93.2253 89° East 465 535 35,000  Level Minneapolis Center
Mon 07:44:02 PM 41.1706 -93.0556 89° East 464 534 35,000  Level Minneapolis Center
Mon 07:45:04 PM 41.1719 -92.8858 89° East 463 533 35,000  Level Minneapolis Center
Mon 07:46:06 PM 41.1742 -92.7156 89° East 463 533 35,000  Level Minneapolis Center
Mon 07:46:53 PM 41.1739 -92.5783 90° East 465 535 35,000  Level Chicago Center
Mon 07:47:55 PM 41.1758 -92.4092 89° East 461 531 35,000 -194 Level Chicago Center
Mon 07:48:57 PM 41.1767 -92.2394 90° East 461 531 34,600 -732 Descending Chicago Center
Mon 07:49:58 PM 41.1775 -92.0350 90° East 464 534 33,500 -1,024 Descending Chicago Center
Mon 07:51:00 PM 41.1781 -91.8642 90° East 465 535 32,500 -919 Descending Chicago Center
Mon 07:52:02 PM 41.1789 -91.6942 90° East 464 534 31,600 -871 Descending Chicago Center
Mon 07:53:04 PM 41.1789 -91.5303 90° East 472 543 30,700 -968 Descending Chicago Center
Mon 07:54:06 PM 41.1794 -91.3219 90° East 472 543 29,600 -1,016 Descending Chicago Center
Mon 07:55:08 PM 41.1775 -91.1486 91° East 470 541 28,600 -976 Descending Chicago Center
Mon 07:56:09 PM 41.1764 -90.9800 90° East 460 529 27,600 -1,512 Descending Chicago Center
Mon 07:57:11 PM 41.1756 -90.8150 90° East 449 517 25,500 -1,597 Descending Chicago Center
Mon 07:58:13 PM 41.1750 -90.6608 90° East 426 490 24,300 -1,048 Descending Chicago Center
Mon 07:59:17 PM 41.1733 -90.5108 91° East 410 472 23,300 -1,000 Descending Chicago Center
Mon 08:00:19 PM 41.1719 -90.3286 91° East 409 471 22,200 -1,500 Descending Chicago Center
Mon 08:01:21 PM 41.1694 -90.1789 91° East 407 468 20,200 -1,935 Descending Chicago Center
Mon 08:02:23 PM 41.1672 -90.0336 91° East 395 455 18,200 -2,000 Descending Chicago Center
Mon 08:03:24 PM 41.1650 -89.8947 91° East 377 434 16,100 -1,561 Descending Chicago Center
Mon 08:04:26 PM 41.1633 -89.7592 91° East 367 422 15,000 -629 Descending Chicago Center
Mon 08:05:28 PM 41.1653 -89.6292 89° East 353 406 14,800 -581 Descending Chicago Center
Mon 08:06:30 PM 41.2031 -89.5039 68° East 367 422 13,800 -968 Descending Chicago Center
Mon 08:07:32 PM 41.2406 -89.3775 68° East 366 421 12,800 -1,024 Descending Chicago Center
Mon 08:08:33 PM 41.2764 -89.2569 68° East 349 402 11,700 -1,122 Descending Chicago Center
Mon 08:09:35 PM 41.3133 -89.1203 70° East 332 382 10,500 -823 Descending Chicago Center
Mon 08:10:37 PM 41.3467 -89.0078 68° East 328 377 10,000 -290 Descending Chicago Center
Mon 08:11:39 PM 41.3803 -88.8933 69° East 332 382 9,900 -732 Descending Chicago Center
Mon 08:12:40 PM 41.4097 -88.7936 68° East 301 346 8,500 -1,415 Descending Chicago Center
Mon 08:13:42 PM 41.4375 -88.6906 70° East 296 341 7,000 -1,258 Descending Chicago Center
Mon 08:14:44 PM 41.4586 -88.5897 74° East 287 330 5,900 -532 Descending Chicago Center
Mon 08:15:46 PM 41.4850 -88.4694 74° East 283 326 5,900 49 Level Chicago Center
Mon 08:16:47 PM 41.5058 -88.3708 74° East 278 320 6,000  Climbing Chicago Center
Mon 08:17:49 PM 41.5269 -88.2714 74° East 278 320 5,900 -581 Descending Chicago Center
Mon 08:18:51 PM 41.5492 -88.1703 74° East 281 323 4,800 -968 Descending Chicago Center
Mon 08:19:53 PM 41.5703 -88.0756 73° East 270 311 3,900 -439 Descending Chicago Center
Mon 08:20:54 PM 41.5944 -87.9919 69° East 256 295 3,900  Level Chicago Center
Mon 08:21:56 PM 41.6444 -87.9306 43° Northeast 248 285 3,900 -571 Level Chicago Center
Mon 08:23:00 PM 41.7000 -87.8500 47° Northeast 226 260 2,700 -1,065 Descending Chicago TRACON
Mon 08:24:00 PM 41.7333 -87.8000 48° Northeast 177 204 1,700 -895 Descending Chicago TRACON
Mon 08:24:54 PM 41.7667 -87.7833 20° North 146 168 1,000 -778 Descending Chicago TRACON

Login

Don't have an account? Register now (free) for customized features, flight alerts, and more!